Time;durP1;ratioP1;P1;durP2;ratioP2;P2;SDS_P1;SDS_P2;PMS_P1;PMS_P2;Temp;Humidity;BMP_temperature;BMP_pressure;BME280_temperature;BME280_humidity;BME280_pressure;Samples;Min_cycle;Max_cycle;Signal;HPM_P1;HPM_P2
2023/07/07 00:02:17;;;;;;;7.00;3.95;;;;;;;27.91;49.29;99210.91;5062114;28;20407;-76
2023/07/07 00:04:42;;;;;;;6.78;3.40;;;;;;;27.92;49.53;99211.72;5068102;28;20032;-78
2023/07/07 00:07:08;;;;;;;6.75;3.30;;;;;;;27.91;49.39;99220.75;5069845;28;20024;-74
2023/07/07 00:09:33;;;;;;;5.07;3.10;;;;;;;27.92;49.31;99223.31;5064585;28;20086;-75
2023/07/07 00:12:00;;;;;;;5.40;3.15;;;;;;;27.93;49.24;99208.06;5061605;28;20074;-74
2023/07/07 00:14:25;;;;;;;6.47;3.40;;;;;;;27.93;49.61;99186.63;5072412;28;20025;-74
2023/07/07 00:16:51;;;;;;;7.78;3.10;;;;;;;27.92;49.38;99180.41;5074181;28;20608;-77
2023/07/07 00:19:18;;;;;;;5.50;2.88;;;;;;;27.93;49.16;99183.94;5074215;28;20017;-74
2023/07/07 00:21:44;;;;;;;5.07;3.08;;;;;;;27.92;49.37;99176.88;5073163;28;20028;-75
2023/07/07 00:24:09;;;;;;;6.00;3.13;;;;;;;27.90;49.21;99162.78;5053715;28;20513;-77
2023/07/07 00:26:35;;;;;;;5.03;2.70;;;;;;;27.91;49.37;99156.41;5053915;28;20450;-75
2023/07/07 00:29:01;;;;;;;3.90;2.65;;;;;;;27.90;49.46;99154.72;5053553;28;20036;-75
2023/07/07 00:31:28;;;;;;;5.53;3.28;;;;;;;27.88;49.33;99145.00;5053761;28;20044;-76
2023/07/07 00:33:53;;;;;;;6.40;3.00;;;;;;;27.85;49.28;99145.28;5052845;28;20026;-76
2023/07/07 00:36:18;;;;;;;5.03;2.90;;;;;;;27.86;49.32;99138.09;5053805;28;20029;-76
2023/07/07 00:38:44;;;;;;;6.28;2.92;;;;;;;27.85;49.02;99147.97;5053780;28;20540;-75
2023/07/07 00:41:09;;;;;;;5.47;2.78;;;;;;;27.84;48.88;99151.63;5054042;28;20032;-76
2023/07/07 00:43:36;;;;;;;5.47;3.08;;;;;;;27.83;49.22;99149.09;5053445;28;20028;-76
2023/07/07 00:46:02;;;;;;;5.03;2.95;;;;;;;27.83;49.12;99170.53;5053713;28;20405;-74
2023/07/07 00:48:34;;;;;;;4.75;3.10;;;;;;;27.82;49.25;99169.72;5053623;28;20036;-74
2023/07/07 00:51:04;;;;;;;4.53;2.70;;;;;;;27.83;49.00;99182.13;5053822;28;20031;-78
2023/07/07 00:53:30;;;;;;;6.07;3.17;;;;;;;27.82;49.18;99185.81;5053460;28;20374;-77
2023/07/07 00:56:05;;;;;;;6.13;3.25;;;;;;;27.82;49.05;99190.31;5053432;28;20021;-75
2023/07/07 00:58:32;;;;;;;5.10;2.60;;;;;;;27.81;49.36;99202.88;5052796;28;20048;-75
2023/07/07 01:01:01;;;;;;;5.47;2.85;;;;;;;27.81;49.25;99193.97;5053404;28;20090;-76
2023/07/07 01:03:40;;;;;;;5.90;3.15;;;;;;;27.82;49.40;99191.16;5053220;28;20087;-74
2023/07/07 01:06:09;;;;;;;4.55;2.80;;;;;;;27.81;49.28;99196.66;5053156;28;20029;-74
2023/07/07 01:08:38;;;;;;;5.90;2.90;;;;;;;27.80;49.02;99195.81;5053389;28;20025;-75
2023/07/07 01:11:03;;;;;;;4.72;2.55;;;;;;;27.80;48.84;99187.75;5053477;28;20425;-75
2023/07/07 01:13:29;;;;;;;6.30;2.90;;;;;;;27.79;49.06;99191.44;5052793;28;20044;-74
2023/07/07 01:16:16;;;;;;;5.32;2.60;;;;;;;27.77;48.94;99193.44;5051881;28;20028;-76
2023/07/07 01:18:50;;;;;;;4.60;2.70;;;;;;;27.77;48.95;99193.44;5053421;28;20389;-74
2023/07/07 01:21:32;;;;;;;6.80;2.97;;;;;;;27.77;48.74;99192.56;5052396;28;20021;-75
2023/07/07 01:24:07;;;;;;;6.20;3.05;;;;;;;27.76;48.78;99199.78;5053311;28;20040;-75
2023/07/07 01:26:57;;;;;;;4.38;2.58;;;;;;;27.74;48.59;99209.78;5052441;28;20059;-75
2023/07/07 01:30:09;;;;;;;6.15;3.05;;;;;;;27.74;48.56;99209.78;5053021;28;20534;-78
2023/07/07 01:32:36;;;;;;;5.20;2.78;;;;;;;27.73;48.60;99211.63;5030406;28;20536;-76
2023/07/07 01:35:08;;;;;;;5.78;2.90;;;;;;;27.72;48.76;99209.94;5030520;28;20049;-76
2023/07/07 01:37:33;;;;;;;5.75;2.72;;;;;;;27.72;48.89;99201.06;5030546;28;20041;-75
2023/07/07 01:40:00;;;;;;;5.75;2.80;;;;;;;27.70;48.57;99203.88;5030362;28;20029;-75
2023/07/07 01:42:41;;;;;;;5.40;2.58;;;;;;;27.70;48.68;99192.31;5030186;28;20104;-74
2023/07/07 01:45:16;;;;;;;4.68;2.60;;;;;;;27.71;48.66;99188.66;5030159;28;20034;-77
2023/07/07 01:47:51;;;;;;;5.22;2.83;;;;;;;27.71;49.03;99188.66;5030518;28;20133;-76
2023/07/07 01:50:24;;;;;;;5.30;3.10;;;;;;;27.71;49.20;99183.28;5030423;28;20506;-76
2023/07/07 01:52:57;;;;;;;5.13;2.83;;;;;;;27.72;49.11;99187.66;5030283;28;20033;-77
2023/07/07 01:55:29;;;;;;;4.55;2.78;;;;;;;27.73;49.17;99192.00;5030048;28;20037;-76
2023/07/07 01:58:02;;;;;;;4.43;2.35;;;;;;;27.71;49.16;99172.56;5027722;28;20033;-74
2023/07/07 02:00:29;;;;;;;4.72;2.67;;;;;;;27.72;49.01;99174.25;5029851;28;20120;-74
2023/07/07 02:02:58;;;;;;;3.97;2.65;;;;;;;27.73;49.23;99179.47;5013599;28;20037;-74
2023/07/07 02:05:24;;;;;;;4.90;2.63;;;;;;;27.71;49.11;99188.66;5029990;28;20100;-75
2023/07/07 02:07:50;;;;;;;5.13;2.63;;;;;;;27.72;49.11;99179.63;5030033;28;20025;-74
2023/07/07 02:10:15;;;;;;;4.97;2.97;;;;;;;27.71;49.34;99177.94;5046549;28;20528;-74
2023/07/07 02:12:41;;;;;;;4.20;2.53;;;;;;;27.70;49.24;99178.91;5052052;28;20032;-74
2023/07/07 02:15:07;;;;;;;4.28;2.45;;;;;;;27.71;49.10;99177.94;5052104;28;20128;-75
2023/07/07 02:17:32;;;;;;;4.47;2.58;;;;;;;27.72;48.94;99174.25;5052059;28;20017;-75
2023/07/07 02:19:58;;;;;;;4.60;2.60;;;;;;;27.69;49.24;99166.50;5052306;28;20048;-77
2023/07/07 02:22:24;;;;;;;4.65;2.65;;;;;;;27.68;49.24;99172.84;5052130;28;20059;-74
2023/07/07 02:24:49;;;;;;;4.10;2.50;;;;;;;27.66;48.72;99164.09;5051646;28;20021;-76
2023/07/07 02:27:15;;;;;;;5.32;2.70;;;;;;;27.65;49.14;99159.75;5052181;28;20100;-75
2023/07/07 02:29:40;;;;;;;5.40;2.90;;;;;;;27.63;48.85;99159.03;5052105;28;20044;-75
2023/07/07 02:32:07;;;;;;;6.38;2.95;;;;;;;27.62;48.73;99174.28;5051403;28;20032;-75
2023/07/07 02:34:32;;;;;;;4.35;2.60;;;;;;;27.61;48.93;99168.06;5051825;28;20033;-77
2023/07/07 02:36:58;;;;;;;6.82;2.78;;;;;;;27.60;49.11;99165.56;5051950;28;20032;-76
2023/07/07 02:39:24;;;;;;;4.45;2.72;;;;;;;27.60;48.79;99169.06;5051714;28;20082;-75
2023/07/07 02:41:50;;;;;;;4.13;2.28;;;;;;;27.58;48.59;99165.69;5051879;28;20033;-75
2023/07/07 02:44:16;;;;;;;5.03;2.42;;;;;;;27.58;48.66;99156.78;5051768;28;20025;-74
2023/07/07 02:46:42;;;;;;;6.78;3.10;;;;;;;27.58;49.17;99167.50;5050147;28;20021;-74
2023/07/07 02:49:07;;;;;;;4.80;2.92;;;;;;;27.55;48.63;99152.53;5051618;28;20139;-75
2023/07/07 02:51:32;;;;;;;4.28;2.47;;;;;;;27.57;48.99;99166.66;5051737;28;20029;-74
2023/07/07 02:53:58;;;;;;;5.03;2.88;;;;;;;27.55;48.90;99159.75;5051440;28;20072;-75
2023/07/07 02:56:23;;;;;;;5.90;2.70;;;;;;;27.52;48.95;99158.19;5050238;28;20017;-75
2023/07/07 02:58:49;;;;;;;8.27;2.97;;;;;;;27.52;48.50;99162.69;5051241;28;20143;-76
2023/07/07 03:01:19;;;;;;;5.93;2.67;;;;;;;27.53;48.49;99164.38;5050217;28;20104;-74
2023/07/07 03:03:48;;;;;;;4.63;2.88;;;;;;;27.53;48.60;99165.25;5051313;28;20405;-78
2023/07/07 03:06:18;;;;;;;5.00;2.65;;;;;;;27.52;48.86;99160.00;5051200;28;20087;-73
2023/07/07 03:08:43;;;;;;;4.45;2.50;;;;;;;27.54;48.86;99160.69;5051096;28;20102;-75
2023/07/07 03:11:15;;;;;;;4.93;2.50;;;;;;;27.52;48.41;99152.84;5051401;28;20063;-77
2023/07/07 03:13:40;;;;;;;4.50;2.40;;;;;;;27.53;48.67;99150.97;5051566;28;20624;-75
2023/07/07 03:16:11;;;;;;;4.55;2.40;;;;;;;27.51;48.54;99145.78;5051356;28;20074;-76
2023/07/07 03:18:38;;;;;;;5.97;2.83;;;;;;;27.50;48.54;99146.75;5051461;28;20052;-75
2023/07/07 03:21:03;;;;;;;5.20;2.78;;;;;;;27.51;48.39;99145.78;5051354;28;20043;-74
2023/07/07 03:23:29;;;;;;;5.25;2.55;;;;;;;27.49;48.46;99142.38;5050842;28;20110;-76
2023/07/07 03:25:54;;;;;;;5.50;2.75;;;;;;;27.47;48.42;99142.53;5051536;28;20021;-74
2023/07/07 03:28:19;;;;;;;6.68;2.88;;;;;;;27.49;48.71;99145.06;5050152;28;20483;-75
2023/07/07 03:30:45;;;;;;;4.95;2.55;;;;;;;27.48;48.52;99151.41;5051365;28;20028;-75
2023/07/07 03:33:13;;;;;;;6.40;3.17;;;;;;;27.45;48.72;99141.84;5051210;28;20492;-75
2023/07/07 03:35:39;;;;;;;5.63;2.80;;;;;;;27.49;48.88;99158.47;5051207;28;20017;-76
2023/07/07 03:38:04;;;;;;;5.22;3.03;;;;;;;27.47;48.82;99155.09;5050856;28;20036;-74
2023/07/07 03:40:29;;;;;;;6.38;3.05;;;;;;;27.48;48.69;99167.50;5051236;28;20020;-76
2023/07/07 03:42:55;;;;;;;4.40;2.50;;;;;;;27.48;48.39;99167.50;5051155;28;20056;-74
2023/07/07 03:45:22;;;;;;;5.38;2.95;;;;;;;27.48;48.68;99159.47;5054115;28;20032;-75
2023/07/07 03:47:47;;;;;;;5.25;3.00;;;;;;;27.48;48.61;99156.78;5054954;28;20420;-76
2023/07/07 03:50:12;;;;;;;6.18;2.70;;;;;;;27.46;48.21;99162.28;5054807;28;20025;-75
2023/07/07 03:52:38;;;;;;;4.85;2.58;;;;;;;27.46;48.36;99166.81;5054606;28;20036;-75
2023/07/07 03:55:04;;;;;;;4.70;2.53;;;;;;;27.47;48.56;99160.47;5054468;28;20112;-75
2023/07/07 03:57:30;;;;;;;5.68;2.50;;;;;;;27.46;48.72;99164.97;5054543;28;20032;-74
2023/07/07 03:59:55;;;;;;;4.80;2.35;;;;;;;27.44;48.57;99161.59;5054534;28;20049;-77
2023/07/07 04:02:20;;;;;;;4.50;2.10;;;;;;;27.44;48.35;99166.09;5054459;28;20028;-75
2023/07/07 04:04:46;;;;;;;6.75;2.55;;;;;;;27.43;48.30;99169.75;5054666;28;20025;-75
2023/07/07 04:07:11;;;;;;;5.90;2.80;;;;;;;27.45;48.40;99168.63;5054149;28;20485;-76
2023/07/07 04:09:37;;;;;;;4.47;2.50;;;;;;;27.43;48.24;99173.28;5054568;28;20052;-74
2023/07/07 04:12:07;;;;;;;5.72;2.28;;;;;;;27.43;48.58;99175.13;5054450;28;20513;-74
2023/07/07 04:14:33;;;;;;;4.82;2.70;;;;;;;27.43;48.74;99175.13;5054542;28;20025;-74
2023/07/07 04:16:58;;;;;;;5.05;2.25;;;;;;;27.42;48.60;99176.13;5054168;28;20028;-76
2023/07/07 04:19:23;;;;;;;5.10;2.40;;;;;;;27.39;48.36;99174.56;5054413;28;20021;-75
2023/07/07 04:21:49;;;;;;;4.50;2.55;;;;;;;27.36;48.79;99174.88;5054088;28;20021;-75
2023/07/07 04:24:18;;;;;;;5.43;2.47;;;;;;;27.37;48.79;99167.66;5053899;28;20025;-73
2023/07/07 04:26:44;;;;;;;5.53;2.60;;;;;;;27.36;48.47;99180.22;5054269;28;20028;-76
2023/07/07 04:29:09;;;;;;;4.75;2.72;;;;;;;27.38;48.75;99174.69;5054073;28;20082;-75
2023/07/07 04:31:35;;;;;;;4.78;2.60;;;;;;;27.34;48.78;99179.50;5052585;28;20029;-76
2023/07/07 04:34:00;;;;;;;5.18;2.30;;;;;;;27.36;48.51;99184.72;5054097;28;20037;-75
2023/07/07 04:36:26;;;;;;;4.45;2.30;;;;;;;27.34;48.57;99183.03;5053617;28;20021;-75
2023/07/07 04:38:51;;;;;;;5.47;2.40;;;;;;;27.34;48.99;99188.41;5053787;28;20552;-75
2023/07/07 04:41:20;;;;;;;5.47;2.45;;;;;;;27.32;48.89;99185.00;5053972;28;20028;-74
2023/07/07 04:43:48;;;;;;;5.15;2.60;;;;;;;27.30;49.04;99181.63;5053836;28;20068;-75
2023/07/07 04:46:20;;;;;;;5.32;2.28;;;;;;;27.30;48.91;99186.97;5053444;28;20036;-75
2023/07/07 04:48:46;;;;;;;4.32;2.28;;;;;;;27.30;48.84;99184.28;5052205;28;20025;-74
2023/07/07 04:51:12;;;;;;;4.45;2.50;;;;;;;27.29;48.79;99189.78;5053277;28;20025;-76
2023/07/07 04:53:39;;;;;;;4.60;2.50;;;;;;;27.29;48.92;99193.31;5053617;28;20013;-77
2023/07/07 04:56:12;;;;;;;4.85;2.50;;;;;;;27.30;48.98;99192.34;5052269;28;20040;-75
2023/07/07 04:58:39;;;;;;;5.75;2.78;;;;;;;27.28;48.82;99191.63;5053371;28;20045;-74
2023/07/07 05:01:07;;;;;;;4.65;2.60;;;;;;;27.26;48.91;99196.28;5053426;28;20033;-75
2023/07/07 05:03:32;;;;;;;4.90;2.63;;;;;;;27.29;48.79;99200.50;5053337;28;20044;-75
2023/07/07 05:05:58;;;;;;;3.30;2.20;;;;;;;27.27;49.12;99198.00;5053175;28;20029;-74
2023/07/07 05:08:23;;;;;;;4.63;2.58;;;;;;;27.29;48.88;99200.50;5052970;28;20441;-77
2023/07/07 05:10:49;;;;;;;5.18;2.55;;;;;;;27.30;48.65;99203.06;5053100;28;20032;-74
2023/07/07 05:13:14;;;;;;;4.28;2.50;;;;;;;27.31;48.68;99199.38;5053154;28;20025;-76
2023/07/07 05:15:40;;;;;;;4.88;2.60;;;;;;;27.32;48.74;99201.06;5053256;28;20032;-74
2023/07/07 05:18:05;;;;;;;4.82;2.30;;;;;;;27.33;48.58;99199.25;5053329;28;20070;-77
2023/07/07 05:20:30;;;;;;;4.63;2.50;;;;;;;27.33;48.78;99199.25;5052802;28;20461;-74
2023/07/07 05:22:56;;;;;;;4.70;2.63;;;;;;;27.32;48.83;99198.38;5052865;28;20036;-74
2023/07/07 05:25:21;;;;;;;4.10;2.45;;;;;;;27.35;48.71;99202.63;5053196;28;20547;-73
2023/07/07 05:27:46;;;;;;;5.75;2.95;;;;;;;27.34;49.15;99201.78;5052871;28;20029;-74
2023/07/07 05:30:12;;;;;;;4.65;2.20;;;;;;;27.30;48.97;99197.69;5053081;28;20024;-74
2023/07/07 05:32:37;;;;;;;4.30;2.63;;;;;;;27.28;49.18;99194.31;5052819;28;20520;-75
2023/07/07 05:35:03;;;;;;;4.55;2.30;;;;;;;27.32;49.53;99200.25;5052252;28;20037;-75
2023/07/07 05:37:28;;;;;;;4.75;2.80;;;;;;;27.30;49.39;99196.84;5048943;28;20024;-74
2023/07/07 05:39:54;;;;;;;4.25;2.22;;;;;;;27.27;49.92;99191.78;5051982;28;20040;-73
2023/07/07 05:42:19;;;;;;;3.70;2.17;;;;;;;27.29;49.88;99197.81;5050593;28;20202;-75
2023/07/07 05:44:44;;;;;;;4.65;2.47;;;;;;;27.29;49.71;99200.50;5052530;28;20036;-75
2023/07/07 05:47:10;;;;;;;3.85;2.33;;;;;;;27.28;50.05;99199.69;5052559;28;20106;-73
2023/07/07 05:49:35;;;;;;;4.60;2.60;;;;;;;27.27;50.18;99198.00;5052205;28;20021;-75
2023/07/07 05:52:00;;;;;;;3.72;2.17;;;;;;;27.27;49.87;99198.00;5052082;28;20025;-74
2023/07/07 05:54:26;;;;;;;6.80;2.67;;;;;;;27.27;49.97;99191.78;5052235;28;20461;-77
2023/07/07 05:56:54;;;;;;;7.00;2.67;;;;;;;27.30;50.07;99199.50;5052430;28;20029;-76
2023/07/07 05:59:19;;;;;;;5.88;2.30;;;;;;;27.28;50.25;99197.00;5047901;28;20040;-75
2023/07/07 06:01:45;;;;;;;5.38;2.42;;;;;;;27.30;49.90;99194.16;5046291;28;20556;-73
2023/07/07 06:04:10;;;;;;;5.95;2.53;;;;;;;27.32;49.96;99198.38;5044142;28;20041;-75
2023/07/07 06:06:35;;;;;;;6.47;2.25;;;;;;;27.36;49.72;99198.13;5047078;28;20025;-75
2023/07/07 06:09:01;;;;;;;5.03;2.40;;;;;;;27.33;49.87;99192.06;5042311;28;20060;-75
2023/07/07 06:11:26;;;;;;;5.72;2.30;;;;;;;27.32;50.01;99190.34;5045527;28;20060;-75
2023/07/07 06:13:52;;;;;;;4.43;2.40;;;;;;;27.34;49.79;99183.03;5050708;28;20115;-75
2023/07/07 06:16:17;;;;;;;5.28;2.35;;;;;;;27.37;50.07;99186.41;5052121;28;20029;-76
2023/07/07 06:18:43;;;;;;;5.38;2.33;;;;;;;27.37;49.81;99186.41;5051866;28;20025;-75
2023/07/07 06:21:08;;;;;;;4.38;2.50;;;;;;;27.36;49.85;99184.72;5052190;28;20466;-76
2023/07/07 06:23:34;;;;;;;4.35;2.40;;;;;;;27.38;50.08;99186.28;5051722;28;20028;-76
2023/07/07 06:26:00;;;;;;;5.05;2.78;;;;;;;27.38;50.13;99190.78;5049869;28;20023;-75
2023/07/07 06:28:25;;;;;;;3.42;2.13;;;;;;;27.40;49.92;99194.19;5051771;28;20024;-75
2023/07/07 06:30:51;;;;;;;4.38;2.40;;;;;;;27.39;50.03;99195.13;5051909;28;20051;-76
2023/07/07 06:33:18;;;;;;;5.10;2.22;;;;;;;27.40;49.80;99202.22;5051833;28;20070;-76
2023/07/07 06:35:43;;;;;;;5.00;2.67;;;;;;;27.37;50.37;99205.16;5051649;28;20061;-75
2023/07/07 06:38:09;;;;;;;4.90;2.53;;;;;;;27.37;50.25;99199.81;5051948;28;20052;-75
2023/07/07 06:40:35;;;;;;;5.35;3.08;;;;;;;27.37;50.52;99200.66;5052003;28;20025;-75
2023/07/07 06:43:01;;;;;;;4.05;2.65;;;;;;;27.37;50.61;99199.81;5051468;28;20033;-77
2023/07/07 06:45:27;;;;;;;5.22;3.00;;;;;;;27.37;50.35;99197.13;5051824;28;20025;-76
2023/07/07 06:47:53;;;;;;;4.72;2.95;;;;;;;27.34;50.61;99204.47;5051595;28;20182;-74
2023/07/07 06:50:27;;;;;;;7.20;2.92;;;;;;;27.36;50.86;99200.78;5051470;28;20036;-76
2023/07/07 06:52:52;;;;;;;5.65;2.80;;;;;;;27.33;50.82;99208.13;5051668;28;20040;-74
2023/07/07 06:55:18;;;;;;;6.03;2.80;;;;;;;27.36;50.47;99190.06;5051663;28;20017;-75
2023/07/07 06:57:43;;;;;;;5.60;3.38;;;;;;;27.34;50.66;99198.25;5051545;28;20043;-74
2023/07/07 07:00:09;;;;;;;5.00;2.85;;;;;;;27.34;51.04;99208.97;5051514;28;20547;-76
2023/07/07 07:02:35;;;;;;;6.53;2.95;;;;;;;27.31;50.90;99199.38;5051468;28;20043;-75
2023/07/07 07:05:00;;;;;;;5.10;2.92;;;;;;;27.34;51.10;99192.88;5051668;28;20408;-75
2023/07/07 07:07:26;;;;;;;5.72;2.97;;;;;;;27.33;51.19;99191.22;5051769;28;20574;-74
2023/07/07 07:09:51;;;;;;;5.32;2.85;;;;;;;27.32;51.28;99195.72;5051590;28;20054;-74
2023/07/07 07:12:17;;;;;;;5.65;3.05;;;;;;;27.35;51.04;99194.56;5051497;28;20029;-74
2023/07/07 07:14:42;;;;;;;5.68;3.10;;;;;;;27.36;50.79;99203.47;5051403;28;20772;-77
2023/07/07 07:17:08;;;;;;;6.95;2.90;;;;;;;27.36;50.85;99195.44;5049958;28;20025;-78
2023/07/07 07:19:34;;;;;;;5.85;2.88;;;;;;;27.36;51.25;99198.13;5053156;28;20690;-75
2023/07/07 07:21:59;;;;;;;5.13;2.90;;;;;;;27.36;50.99;99203.47;5055317;28;20021;-75
2023/07/07 07:24:25;;;;;;;5.50;3.10;;;;;;;27.36;51.01;99201.66;5055463;28;20067;-77
2023/07/07 07:26:50;;;;;;;5.45;2.70;;;;;;;27.35;51.42;99199.94;5055430;28;20389;-75
2023/07/07 07:29:15;;;;;;;4.45;2.70;;;;;;;27.35;51.21;99216.00;5055192;28;20036;-75
2023/07/07 07:31:42;;;;;;;6.75;3.00;;;;;;;27.36;51.68;99211.50;5054937;28;20032;-77
2023/07/07 07:34:23;;;;;;;5.57;3.03;;;;;;;27.36;51.67;99216.88;5055245;28;20125;-74
2023/07/07 07:36:49;;;;;;;5.82;3.20;;;;;;;27.37;51.75;99223.91;5054885;28;20036;-74
2023/07/07 07:39:15;;;;;;;6.70;3.05;;;;;;;27.35;51.56;99221.38;5054978;28;20112;-74
2023/07/07 07:41:41;;;;;;;6.05;3.55;;;;;;;27.35;51.86;99210.66;5054826;28;20459;-74
2023/07/07 07:44:06;;;;;;;6.68;3.10;;;;;;;27.34;51.71;99212.50;5054384;28;20032;-77
2023/07/07 07:46:31;;;;;;;5.20;2.92;;;;;;;27.37;51.73;99213.19;5054907;28;20029;-75
2023/07/07 07:48:57;;;;;;;4.65;3.00;;;;;;;27.38;51.75;99214.88;5054569;28;20394;-75
2023/07/07 07:51:22;;;;;;;6.35;3.42;;;;;;;27.37;52.19;99210.53;5054437;28;20064;-75
2023/07/07 07:53:48;;;;;;;5.60;3.17;;;;;;;27.38;51.85;99204.16;5054798;28;20078;-73
2023/07/07 07:56:13;;;;;;;5.15;3.05;;;;;;;27.40;51.75;99203.03;5054067;28;20064;-75
2023/07/07 07:58:38;;;;;;;4.93;3.42;;;;;;;27.41;51.49;99203.91;5052831;28;20076;-74
2023/07/07 08:01:04;;;;;;;5.70;3.10;;;;;;;27.44;51.49;99206.28;5054580;28;20040;-75
2023/07/07 08:03:29;;;;;;;5.13;2.83;;;;;;;27.45;51.42;99205.31;5054611;28;20574;-75
2023/07/07 08:05:55;;;;;;;6.68;3.10;;;;;;;27.47;51.42;99203.31;5054619;28;20021;-76
2023/07/07 08:08:20;;;;;;;4.63;2.72;;;;;;;27.47;51.58;99203.31;5054604;28;20025;-78
2023/07/07 08:10:45;;;;;;;3.97;2.65;;;;;;;27.50;51.39;99207.56;5054647;28;20104;-74
2023/07/07 08:13:11;;;;;;;5.10;2.88;;;;;;;27.51;51.21;99210.09;5054173;28;20025;-77
2023/07/07 08:15:36;;;;;;;5.50;3.03;;;;;;;27.52;51.14;99197.53;5052825;28;20047;-75
2023/07/07 08:18:02;;;;;;;5.18;3.00;;;;;;;27.53;51.02;99202.75;5054375;28;20086;-76
2023/07/07 08:20:27;;;;;;;4.15;2.70;;;;;;;27.54;51.26;99190.19;5054031;28;20384;-76
2023/07/07 08:22:53;;;;;;;5.30;3.38;;;;;;;27.57;50.84;99192.59;5053869;28;20029;-75
2023/07/07 08:25:19;;;;;;;4.10;2.70;;;;;;;27.59;51.15;99191.50;5054137;28;20017;-75
2023/07/07 08:27:45;;;;;;;6.10;3.38;;;;;;;27.60;50.89;99195.84;5053849;28;20036;-74
2023/07/07 08:30:11;;;;;;;6.15;3.10;;;;;;;27.61;51.02;99197.53;5054203;28;20098;-77
2023/07/07 08:32:36;;;;;;;4.75;3.10;;;;;;;27.65;50.98;99173.16;5053994;28;20052;-76
2023/07/07 08:35:02;;;;;;;4.55;3.00;;;;;;;27.66;51.08;99183.72;5054034;28;20036;-75
2023/07/07 08:37:27;;;;;;;5.47;3.00;;;;;;;27.68;50.67;99189.78;5053981;28;20036;-74
2023/07/07 08:39:53;;;;;;;4.00;2.58;;;;;;;27.68;50.77;99173.69;5053943;28;20035;-74
2023/07/07 08:42:27;;;;;;;6.38;2.90;;;;;;;27.70;50.80;99176.25;5053488;28;20061;-75
2023/07/07 08:44:55;;;;;;;4.55;3.05;;;;;;;27.73;50.74;99181.28;5053818;28;20025;-76
2023/07/07 08:47:52;;;;;;;5.32;3.05;;;;;;;27.72;50.82;99174.25;5053964;28;20087;-76
2023/07/07 08:50:21;;;;;;;4.93;3.28;;;;;;;27.72;51.06;99191.19;5031441;28;20042;-75
2023/07/07 08:53:18;;;;;;;5.85;3.28;;;;;;;27.76;50.82;99180.16;5031448;28;20050;-75
2023/07/07 08:55:52;;;;;;;4.63;3.20;;;;;;;27.73;51.00;99171.44;5031587;28;20036;-76
2023/07/07 08:58:24;;;;;;;6.25;3.20;;;;;;;27.73;51.02;99175.94;5011486;28;20054;-75
2023/07/07 09:01:28;;;;;;;5.47;3.30;;;;;;;27.75;50.83;99179.34;4995266;28;20045;-76
2023/07/07 09:04:05;;;;;;;6.00;3.13;;;;;;;27.77;51.00;99182.72;5001031;28;20474;-76
2023/07/07 09:06:48;;;;;;;5.30;3.15;;;;;;;27.77;51.04;99177.34;5030552;28;20095;-75
2023/07/07 09:09:44;;;;;;;6.70;3.47;;;;;;;27.80;50.96;99176.22;5030716;28;20103;-75
2023/07/07 09:12:19;;;;;;;4.47;3.23;;;;;;;27.83;51.00;99178.59;5030188;28;20049;-77
2023/07/07 09:14:47;;;;;;;6.30;3.67;;;;;;;27.83;50.72;99176.75;5030597;28;20026;-75
2023/07/07 09:17:22;;;;;;;5.55;3.35;;;;;;;27.82;51.13;99174.22;5030453;28;20439;-75
2023/07/07 09:19:49;;;;;;;5.18;3.58;;;;;;;27.83;51.06;99171.41;5030604;28;20501;-74
2023/07/07 09:22:27;;;;;;;5.45;3.20;;;;;;;27.85;51.03;99180.13;5030634;28;20512;-74
2023/07/07 09:24:59;;;;;;;5.82;3.75;;;;;;;27.85;51.33;99190.03;5032427;28;20029;-74
2023/07/07 09:27:34;;;;;;;5.40;3.65;;;;;;;27.87;51.27;99183.53;5052969;28;20070;-77
2023/07/07 09:30:10;;;;;;;7.35;3.58;;;;;;;27.89;51.08;99183.38;5053154;28;20029;-75
2023/07/07 09:32:36;;;;;;;5.60;3.97;;;;;;;27.88;51.22;99189.72;5053176;28;20039;-76
2023/07/07 09:35:01;;;;;;;5.85;3.75;;;;;;;27.91;50.91;99177.84;5052445;28;20017;-73
2023/07/07 09:37:37;;;;;;;6.72;3.50;;;;;;;27.92;51.26;99166.13;5052913;28;20385;-74
2023/07/07 09:40:26;;;;;;;5.60;3.42;;;;;;;27.92;51.12;99153.59;5052681;28;20116;-73
2023/07/07 09:43:00;;;;;;;5.82;3.53;;;;;;;27.92;50.95;99158.94;5050512;28;20497;-73
2023/07/07 09:45:44;;;;;;;5.45;3.67;;;;;;;27.94;51.20;99161.50;5052612;28;20025;-73
2023/07/07 09:49:04;;;;;;;5.55;3.40;;;;;;;27.99;50.95;99164.59;5051553;28;20021;-75
2023/07/07 09:51:42;;;;;;;6.95;3.78;;;;;;;28.01;51.07;99167.94;5029598;28;20522;-74
2023/07/07 09:54:13;;;;;;;5.03;3.67;;;;;;;28.01;51.02;99162.59;5029893;28;20083;-74
2023/07/07 09:57:02;;;;;;;5.40;3.50;;;;;;;28.03;51.06;99155.22;5029434;28;20713;-74
2023/07/07 09:59:42;;;;;;;5.70;3.13;;;;;;;28.04;50.86;99156.94;5029255;28;20042;-76
2023/07/07 10:02:14;;;;;;;5.23;3.13;;;;;;;28.05;50.97;99153.25;5026088;28;20445;-76
2023/07/07 10:04:44;;;;;;;4.95;3.22;;;;;;;28.07;51.10;99156.63;5027001;28;20059;-76
2023/07/07 10:07:14;;;;;;;6.18;3.70;;;;;;;28.08;50.71;99160.16;5025022;28;20132;-75
2023/07/07 10:09:39;;;;;;;5.05;3.47;;;;;;;28.09;51.16;99154.63;5022152;28;20077;-76
2023/07/07 10:12:10;;;;;;;6.45;3.75;;;;;;;28.10;51.20;99151.00;5026457;28;20025;-76
2023/07/07 10:14:36;;;;;;;5.65;3.50;;;;;;;28.10;51.06;99161.72;5029371;28;20044;-75
2023/07/07 10:17:08;;;;;;;5.00;3.00;;;;;;;28.13;50.76;99145.31;5020984;28;20139;-74
2023/07/07 10:19:42;;;;;;;4.97;3.50;;;;;;;28.14;50.70;99140.81;5022453;28;20029;-74
2023/07/07 10:22:11;;;;;;;5.13;3.22;;;;;;;28.17;50.89;99145.03;5018890;28;20037;-74
2023/07/07 10:24:36;;;;;;;4.68;3.08;;;;;;;28.17;50.76;99153.06;5016617;28;20034;-74
2023/07/07 10:27:02;;;;;;;5.97;3.35;;;;;;;28.18;50.74;99141.34;5033754;28;20124;-75
2023/07/07 10:29:33;;;;;;;5.15;3.20;;;;;;;28.20;50.74;99155.44;5041554;28;20449;-78
2023/07/07 10:31:59;;;;;;;5.32;3.33;;;;;;;28.22;50.79;99142.75;5041373;28;20025;-74
2023/07/07 10:34:35;;;;;;;5.15;3.13;;;;;;;28.24;50.55;99136.25;5042750;28;20040;-76
2023/07/07 10:37:00;;;;;;;;;;;;;;;28.26;50.89;99146.84;5041163;28;20028;-77
2023/07/07 10:39:28;;;;;;;5.40;3.10;;;;;;;28.28;50.45;99142.19;5041952;28;20349;-75
2023/07/07 10:41:54;;;;;;;3.97;3.05;;;;;;;28.27;51.08;99141.31;5042301;28;20121;-75
2023/07/07 10:44:23;;;;;;;5.10;3.75;;;;;;;28.30;51.22;99137.50;5041747;28;20116;-75
2023/07/07 10:46:48;;;;;;;5.85;3.60;;;;;;;28.31;51.21;99131.13;5040489;28;20053;-76
2023/07/07 10:49:17;;;;;;;5.50;3.05;;;;;;;28.33;51.04;99139.03;5043112;28;20052;-73
2023/07/07 10:52:20;;;;;;;5.88;3.50;;;;;;;28.35;50.89;99137.91;5040230;28;20033;-77
2023/07/07 10:55:21;;;;;;;6.63;3.00;;;;;;;28.35;51.39;99135.22;5046370;28;20109;-75
2023/07/07 10:58:02;;;;;;;6.07;3.03;;;;;;;28.36;51.01;99134.22;5033267;28;20076;-79
2023/07/07 11:00:42;;;;;;;5.30;3.08;;;;;;;28.39;50.73;99127.72;5024286;28;20044;-76
2023/07/07 11:03:49;;;;;;;5.32;3.42;;;;;;;28.40;50.74;99108.78;5024949;28;20057;-77
2023/07/07 11:06:27;;;;;;;6.77;3.43;;;;;;;28.43;50.89;99123.72;5024160;28;20141;-76
2023/07/07 11:09:11;;;;;;;4.80;2.78;;;;;;;28.44;51.14;99114.69;5021368;28;20042;-75
2023/07/07 11:12:05;;;;;;;5.25;3.13;;;;;;;28.47;51.01;99118.91;5007469;28;20572;-78
2023/07/07 11:14:33;;;;;;;6.07;3.05;;;;;;;28.47;50.76;99109.00;4952765;29;20031;-76
2023/07/07 11:17:03;;;;;;;4.78;2.75;;;;;;;28.47;50.79;99108.16;4953693;28;20057;-76
2023/07/07 11:19:34;;;;;;;4.63;2.95;;;;;;;28.48;50.64;99102.63;4955052;29;20035;-77
2023/07/07 11:22:26;;;;;;;4.22;2.78;;;;;;;28.51;51.03;99110.41;4954700;28;20036;-78
2023/07/07 11:25:04;;;;;;;5.63;2.78;;;;;;;28.52;50.98;99100.50;4954505;28;20047;-77
2023/07/07 11:27:48;;;;;;;3.67;2.45;;;;;;;28.54;51.07;99103.88;4955305;28;20054;-77
2023/07/07 11:30:31;;;;;;;4.00;2.50;;;;;;;28.56;51.13;99099.19;4954676;28;20031;-76
2023/07/07 11:33:06;;;;;;;4.45;2.53;;;;;;;28.57;50.60;99092.81;4954823;28;20157;-78
2023/07/07 11:35:53;;;;;;;4.38;2.55;;;;;;;28.57;50.93;99095.50;4951253;28;20042;-78
2023/07/07 11:38:24;;;;;;;4.40;2.60;;;;;;;28.59;50.57;99085.47;4971599;28;20035;-77
2023/07/07 11:41:00;;;;;;;4.30;2.47;;;;;;;28.60;50.83;99092.53;4956653;28;20313;-76
2023/07/07 11:43:44;;;;;;;4.68;2.50;;;;;;;28.62;51.11;99087.84;4973509;28;20494;-80
2023/07/07 11:46:28;;;;;;;4.70;2.47;;;;;;;28.64;51.05;99083.19;4970906;28;20097;-80